createdAt,value
2022-09-01T00:00:14.274Z,14.66
2022-09-01T00:02:43.329Z,14.64
2022-09-01T00:05:10.557Z,14.66
2022-09-01T00:07:37.380Z,14.72
2022-09-01T00:10:09.335Z,14.80
2022-09-01T00:12:36.209Z,14.90
2022-09-01T00:15:07.272Z,15.00
2022-09-01T00:17:34.550Z,15.10
2022-09-01T00:20:01.428Z,15.16
2022-09-01T00:22:29.620Z,15.25
2022-09-01T00:24:56.868Z,15.28
2022-09-01T00:27:27.928Z,15.29
2022-09-01T00:29:58.559Z,15.28
2022-09-01T00:32:25.548Z,15.30
2022-09-01T00:34:52.461Z,15.27
2022-09-01T00:37:19.695Z,15.26
2022-09-01T00:39:46.608Z,15.29
2022-09-01T00:42:13.457Z,15.24
2022-09-01T00:44:40.283Z,15.21
2022-09-01T00:47:07.206Z,15.29
2022-09-01T00:49:40.213Z,15.27
2022-09-01T00:52:47.655Z,15.31
2022-09-01T00:55:35.475Z,15.33
2022-09-01T00:58:04.502Z,15.37
2022-09-01T01:00:41.906Z,15.42
2022-09-01T01:03:14.338Z,15.42
2022-09-01T01:05:48.973Z,15.46
2022-09-01T01:08:19.998Z,15.45
2022-09-01T01:10:47.600Z,15.49
2022-09-01T01:13:17.281Z,15.49
2022-09-01T01:15:44.981Z,15.50
2022-09-01T01:18:14.739Z,15.49
2022-09-01T01:21:02.246Z,15.55
2022-09-01T01:23:41.171Z,15.53
2022-09-01T01:26:10.641Z,15.53
2022-09-01T01:28:41.437Z,15.53
2022-09-01T01:31:14.546Z,15.55
2022-09-01T01:33:54.412Z,15.52
2022-09-01T01:36:33.923Z,15.58
2022-09-01T01:39:15.627Z,15.56
2022-09-01T01:41:48.895Z,15.52
2022-09-01T01:44:21.466Z,15.49
2022-09-01T01:46:52.452Z,15.53
2022-09-01T01:49:23.276Z,15.51
2022-09-01T01:51:58.082Z,15.48
2022-09-01T01:54:27.176Z,15.46
2022-09-01T01:56:55.959Z,15.45
2022-09-01T01:59:24.837Z,15.42
2022-09-01T02:01:51.936Z,15.43
2022-09-01T02:04:20.775Z,15.47
2022-09-01T02:06:50.023Z,15.49
2022-09-01T02:09:21.426Z,15.47
2022-09-01T02:11:49.393Z,15.47
2022-09-01T02:14:20.671Z,15.48
2022-09-01T02:16:48.490Z,15.48
2022-09-01T02:19:19.749Z,15.46
2022-09-01T02:21:56.338Z,15.47
2022-09-01T02:24:24.541Z,15.40
2022-09-01T02:26:51.406Z,15.40
2022-09-01T02:29:22.616Z,15.37
2022-09-01T02:31:52.686Z,15.26
2022-09-01T02:34:24.434Z,15.25
2022-09-01T02:36:54.507Z,15.24
2022-09-01T02:39:26.860Z,15.19
2022-09-01T02:41:54.802Z,15.20
2022-09-01T02:44:23.064Z,15.19
2022-09-01T02:46:50.932Z,15.16
2022-09-01T02:49:28.763Z,15.18
2022-09-01T02:52:02.054Z,15.22
2022-09-01T02:54:32.052Z,15.19
2022-09-01T02:56:59.176Z,15.19
2022-09-01T02:59:30.642Z,15.14
2022-09-01T03:01:57.744Z,15.11
2022-09-01T03:04:27.422Z,15.08
2022-09-01T03:06:55.141Z,14.97
2022-09-01T03:09:23.140Z,15.02
2022-09-01T03:11:53.284Z,14.95
2022-09-01T03:14:21.975Z,14.90
2022-09-01T03:16:48.984Z,14.90
2022-09-01T03:19:19.276Z,14.86
2022-09-01T03:21:47.136Z,14.82
2022-09-01T03:24:16.958Z,14.88
2022-09-01T03:26:45.190Z,14.86
2022-09-01T03:29:17.293Z,14.88
2022-09-01T03:31:45.330Z,14.90
2022-09-01T03:34:12.743Z,14.95
2022-09-01T03:36:40.113Z,14.99
2022-09-01T03:39:14.567Z,15.00
2022-09-01T03:41:43.891Z,14.99
2022-09-01T03:44:12.288Z,14.99
2022-09-01T03:46:40.827Z,15.04
2022-09-01T03:49:08.221Z,14.98
2022-09-01T03:51:35.493Z,14.99
2022-09-01T03:54:02.416Z,15.01
2022-09-01T03:56:29.935Z,15.01
2022-09-01T03:58:59.740Z,14.98
2022-09-01T04:01:29.169Z,14.99
2022-09-01T04:03:56.077Z,14.96
2022-09-01T04:06:24.541Z,14.97
2022-09-01T04:09:03.152Z,14.98
2022-09-01T04:11:31.182Z,14.94
2022-09-01T04:13:59.182Z,14.96
2022-09-01T04:16:48.858Z,14.96
2022-09-01T04:19:21.058Z,14.95
2022-09-01T04:21:51.864Z,14.94
2022-09-01T04:24:19.298Z,14.93
2022-09-01T04:26:49.826Z,14.92
2022-09-01T04:29:32.986Z,14.87
2022-09-01T04:32:05.750Z,14.82
2022-09-01T04:34:38.393Z,14.81
2022-09-01T04:37:15.194Z,14.81
2022-09-01T04:39:52.513Z,14.79
2022-09-01T04:42:24.220Z,14.78
2022-09-01T04:44:54.751Z,14.71
2022-09-01T04:47:35.613Z,14.68
2022-09-01T04:50:14.261Z,14.66
2022-09-01T04:52:45.191Z,14.62
2022-09-01T04:55:17.979Z,14.65
2022-09-01T04:57:49.883Z,14.68
2022-09-01T05:00:23.632Z,14.66
2022-09-01T05:03:01.386Z,14.67
2022-09-01T05:05:28.209Z,14.70
2022-09-01T05:07:55.913Z,14.73
2022-09-01T05:10:23.520Z,14.74
2022-09-01T05:12:51.025Z,14.75
2022-09-01T05:15:17.971Z,14.79
2022-09-01T05:17:44.991Z,14.78
2022-09-01T05:20:12.479Z,14.79
2022-09-01T05:22:41.212Z,14.75
2022-09-01T05:25:13.543Z,14.75
2022-09-01T05:27:49.961Z,14.74
2022-09-01T05:30:18.210Z,14.73
2022-09-01T05:32:49.318Z,14.73
2022-09-01T05:35:16.607Z,14.71
2022-09-01T05:37:43.669Z,14.71
2022-09-01T05:40:16.599Z,14.71
2022-09-01T05:42:47.740Z,14.69
2022-09-01T05:45:15.379Z,14.66
2022-09-01T05:47:42.306Z,14.68
2022-09-01T05:50:14.475Z,14.66
2022-09-01T05:52:48.022Z,14.69
2022-09-01T05:55:15.438Z,14.62
2022-09-01T05:57:43.049Z,14.60
2022-09-01T06:00:12.435Z,14.58
2022-09-01T06:02:40.837Z,14.58
2022-09-01T06:05:08.740Z,14.58
2022-09-01T06:07:38.236Z,14.56
2022-09-01T06:10:06.172Z,14.55
2022-09-01T06:12:33.942Z,14.56
2022-09-01T06:15:01.400Z,14.60
2022-09-01T06:17:30.217Z,14.64
2022-09-01T06:19:58.128Z,14.66
2022-09-01T06:22:28.433Z,14.68
2022-09-01T06:25:01.029Z,14.75
2022-09-01T06:27:29.568Z,14.83
2022-09-01T06:29:58.530Z,14.90
2022-09-01T06:32:27.369Z,14.96
2022-09-01T06:34:54.789Z,15.01
2022-09-01T06:37:23.236Z,15.08
2022-09-01T06:39:51.111Z,15.20
2022-09-01T06:42:19.600Z,15.28
2022-09-01T06:44:46.577Z,15.36
2022-09-01T06:47:15.732Z,15.45
2022-09-01T06:49:42.748Z,15.52
2022-09-01T06:52:09.661Z,15.56
2022-09-01T06:54:39.350Z,15.69
2022-09-01T06:59:54.429Z,16.01
2022-09-01T07:02:26.585Z,16.11
2022-09-01T07:04:54.725Z,16.17
2022-09-01T07:10:25.751Z,16.17
2022-09-01T07:13:12.162Z,16.19
2022-09-01T07:18:31.014Z,16.17
2022-09-01T07:21:35.682Z,16.20
2022-09-01T07:24:07.888Z,16.28
2022-09-01T07:26:46.845Z,16.25
2022-09-01T07:29:26.430Z,16.28
2022-09-01T07:34:46.473Z,16.23
2022-09-01T07:38:03.922Z,16.27
2022-09-01T07:45:31.208Z,16.27
2022-09-01T07:48:06.609Z,16.30
2022-09-01T07:51:35.212Z,16.35
2022-09-01T07:53:32.238Z,16.39
2022-09-01T07:56:07.585Z,16.42
2022-09-01T07:58:34.465Z,16.43
2022-09-01T08:01:04.053Z,16.44
2022-09-01T08:03:31.328Z,16.53
2022-09-01T08:06:06.616Z,16.55
2022-09-01T08:08:35.863Z,16.67
2022-09-01T08:11:04.604Z,16.73
2022-09-01T08:13:37.304Z,16.91
2022-09-01T08:16:18.006Z,17.20
2022-09-01T08:18:48.821Z,17.54
2022-09-01T08:21:18.063Z,17.91
2022-09-01T08:23:44.972Z,18.35
2022-09-01T08:26:16.283Z,18.66
2022-09-01T08:28:47.478Z,18.96
2022-09-01T08:31:23.256Z,19.25
2022-09-01T08:33:51.598Z,19.55
2022-09-01T08:36:23.650Z,19.69
2022-09-01T08:38:52.815Z,19.86
2022-09-01T08:41:47.173Z,19.99
2022-09-01T08:44:47.012Z,20.17
2022-09-01T08:47:28.112Z,20.21
2022-09-01T08:50:00.223Z,20.23
2022-09-01T08:52:32.116Z,20.27
2022-09-01T08:55:05.772Z,20.28
2022-09-01T08:57:40.011Z,20.28
2022-09-01T09:00:12.815Z,20.37
2022-09-01T09:03:02.713Z,20.56
2022-09-01T09:05:53.771Z,20.55
2022-09-01T09:09:00.903Z,20.43
2022-09-01T09:11:46.726Z,20.33
2022-09-01T09:14:51.383Z,20.14
2022-09-01T09:17:23.876Z,20.27
2022-09-01T09:19:51.046Z,20.38
2022-09-01T09:22:21.192Z,20.50
2022-09-01T09:24:56.289Z,20.56
2022-09-01T09:27:34.781Z,20.52
2022-09-01T09:30:11.632Z,20.69
2022-09-01T09:33:54.317Z,20.80
2022-09-01T09:36:37.731Z,20.89
2022-09-01T09:39:10.449Z,20.94
2022-09-01T09:41:40.563Z,20.99
2022-09-01T09:44:29.754Z,20.97
2022-09-01T09:46:57.945Z,20.99
2022-09-01T09:49:34.524Z,20.94
2022-09-01T09:52:10.013Z,20.87
2022-09-01T09:54:42.155Z,20.86
2022-09-01T09:57:08.931Z,20.77
2022-09-01T10:00:10.347Z,20.70
2022-09-01T10:02:45.253Z,20.75
2022-09-01T10:05:44.373Z,20.82
2022-09-01T10:08:45.812Z,20.92
2022-09-01T10:11:33.551Z,21.10
2022-09-01T10:14:52.478Z,21.21
2022-09-01T10:17:19.017Z,21.39
2022-09-01T10:20:11.420Z,21.39
2022-09-01T10:22:39.979Z,21.43
2022-09-01T10:25:10.378Z,21.44
2022-09-01T10:27:42.590Z,21.36
2022-09-01T10:30:18.996Z,21.42
2022-09-01T10:32:56.023Z,21.42
2022-09-01T10:35:33.060Z,21.42
2022-09-01T10:38:08.250Z,21.38
2022-09-01T10:41:09.101Z,21.36
2022-09-01T10:43:43.317Z,21.35
2022-09-01T10:46:40.760Z,21.37
2022-09-01T10:49:47.342Z,21.36
2022-09-01T10:52:43.988Z,21.38
2022-09-01T10:55:24.462Z,21.41
2022-09-01T10:57:55.830Z,21.41
2022-09-01T11:00:36.890Z,21.45
2022-09-01T11:06:14.889Z,21.52
2022-09-01T11:09:01.500Z,21.56
2022-09-01T11:12:38.287Z,21.59
2022-09-01T11:15:42.918Z,21.57
2022-09-01T11:18:25.083Z,21.70
2022-09-01T11:20:56.305Z,21.69
2022-09-01T11:23:30.643Z,21.74
2022-09-01T11:26:19.248Z,21.73
2022-09-01T11:28:47.168Z,21.68
2022-09-01T11:31:51.199Z,21.71
2022-09-01T11:34:23.803Z,21.79
2022-09-01T11:37:16.081Z,21.74
2022-09-01T11:39:52.072Z,21.80
2022-09-01T11:42:40.243Z,21.85
2022-09-01T11:45:31.484Z,21.91
2022-09-01T11:48:19.203Z,21.90
2022-09-01T11:51:02.832Z,21.94
2022-09-01T11:53:30.547Z,22.01
2022-09-01T11:56:20.507Z,22.06
2022-09-01T11:58:47.651Z,22.21
2022-09-01T12:01:32.127Z,22.31
2022-09-01T12:04:18.723Z,22.45
2022-09-01T12:07:02.501Z,22.48
2022-09-01T12:09:44.199Z,22.55
2022-09-01T12:12:34.040Z,22.62
2022-09-01T12:15:11.400Z,22.70
2022-09-01T12:17:40.903Z,22.75
2022-09-01T12:20:29.615Z,22.81
2022-09-01T12:22:59.423Z,22.77
2022-09-01T12:25:34.679Z,22.71
2022-09-01T12:28:03.947Z,22.71
2022-09-01T12:30:35.531Z,22.81
2022-09-01T12:33:23.948Z,22.88
2022-09-01T12:35:53.981Z,22.95
2022-09-01T12:38:25.039Z,22.97
2022-09-01T12:40:57.748Z,23.04
2022-09-01T12:43:39.735Z,23.11
2022-09-01T12:46:10.470Z,23.15
2022-09-01T12:48:41.319Z,23.08
2022-09-01T12:51:30.922Z,23.10
2022-09-01T12:54:04.859Z,23.18
2022-09-01T12:56:39.139Z,23.28
2022-09-01T12:59:17.833Z,23.32
2022-09-01T13:01:47.251Z,23.44
2022-09-01T13:04:31.145Z,23.50
2022-09-01T13:07:05.143Z,23.45
2022-09-01T13:09:32.556Z,23.33
2022-09-01T13:12:18.469Z,23.33
2022-09-01T13:14:45.907Z,23.35
2022-09-01T13:17:14.221Z,23.30
2022-09-01T13:19:41.873Z,23.35
2022-09-01T13:22:08.736Z,23.35
2022-09-01T13:24:35.587Z,23.38
2022-09-01T13:29:50.816Z,23.35
2022-09-01T13:32:21.262Z,23.32
2022-09-01T13:34:51.842Z,23.29
2022-09-01T13:37:20.599Z,23.26
2022-09-01T13:39:48.236Z,23.30
2022-09-01T13:42:16.472Z,23.30
2022-09-01T13:44:44.441Z,23.37
2022-09-01T13:50:10.521Z,23.26
2022-09-01T13:52:43.165Z,23.21
2022-09-01T13:55:26.772Z,23.28
2022-09-01T13:57:55.809Z,23.34
2022-09-01T14:00:32.230Z,23.39
2022-09-01T14:03:05.722Z,23.35
2022-09-01T14:05:37.131Z,23.44
2022-09-01T14:08:07.246Z,23.51
2022-09-01T14:10:41.829Z,23.59
2022-09-01T14:13:10.999Z,23.60
2022-09-01T14:15:38.196Z,23.61
2022-09-01T14:18:05.703Z,23.54
2022-09-01T14:20:38.555Z,23.50
2022-09-01T14:23:08.531Z,23.44
2022-09-01T14:25:36.058Z,23.32
2022-09-01T14:28:04.008Z,23.23
2022-09-01T14:30:34.578Z,23.14
2022-09-01T14:33:01.992Z,23.09
2022-09-01T14:35:33.841Z,23.09
2022-09-01T14:38:02.971Z,23.05
2022-09-01T14:40:29.873Z,23.04
2022-09-01T14:42:56.789Z,22.95
2022-09-01T14:45:27.739Z,23.00
2022-09-01T14:47:58.807Z,23.13
2022-09-01T14:50:27.329Z,23.24
2022-09-01T14:52:56.964Z,23.34
2022-09-01T14:55:26.720Z,23.42
2022-09-01T14:57:54.642Z,23.41
2022-09-01T15:00:25.173Z,23.42
2022-09-01T15:02:53.650Z,23.46
2022-09-01T15:05:21.547Z,23.48
2022-09-01T15:07:49.274Z,23.49
2022-09-01T15:10:24.449Z,23.52
2022-09-01T15:12:53.790Z,23.56
2022-09-01T15:15:20.822Z,23.55
2022-09-01T15:17:47.591Z,23.58
2022-09-01T15:20:47.751Z,23.61
2022-09-01T15:23:19.704Z,23.67
2022-09-01T15:25:48.351Z,23.66
2022-09-01T15:28:15.657Z,23.71
2022-09-01T15:30:44.810Z,23.72
2022-09-01T15:33:15.679Z,23.73
2022-09-01T15:35:44.952Z,23.73
2022-09-01T15:38:17.928Z,23.80
2022-09-01T15:40:55.399Z,23.84
2022-09-01T15:43:25.955Z,23.90
2022-09-01T15:45:52.940Z,23.87
2022-09-01T15:48:19.749Z,23.86
2022-09-01T15:50:46.799Z,23.90
2022-09-01T15:53:13.717Z,23.88
2022-09-01T15:55:44.983Z,23.85
2022-09-01T15:58:15.301Z,23.78
2022-09-01T16:00:45.257Z,23.66
2022-09-01T16:03:12.746Z,23.51
2022-09-01T16:05:41.271Z,23.48
2022-09-01T16:08:11.658Z,23.43
2022-09-01T16:10:42.320Z,23.42
2022-09-01T16:13:11.136Z,23.44
2022-09-01T16:15:50.022Z,23.38
2022-09-01T16:18:41.957Z,23.21
2022-09-01T16:21:22.544Z,23.18
2022-09-01T16:23:52.454Z,23.10
2022-09-01T16:26:23.340Z,23.00
2022-09-01T16:28:57.920Z,22.95
2022-09-01T16:31:29.343Z,22.88
2022-09-01T16:34:02.280Z,22.84
2022-09-01T16:37:25.236Z,22.77
2022-09-01T16:40:25.037Z,22.83
2022-09-01T16:43:23.877Z,22.82
2022-09-01T16:46:13.758Z,22.77
2022-09-01T16:48:53.299Z,22.71
2022-09-01T16:51:42.093Z,22.70
2022-09-01T16:54:27.222Z,22.68
2022-09-01T16:57:11.452Z,22.60
2022-09-01T16:59:59.211Z,22.60
2022-09-01T17:02:53.707Z,22.58
2022-09-01T17:06:13.814Z,22.57
2022-09-01T17:08:58.208Z,22.56
2022-09-01T17:11:49.216Z,22.51
2022-09-01T17:14:28.001Z,22.54
2022-09-01T17:17:08.362Z,22.57
2022-09-01T17:19:38.603Z,22.66
2022-09-01T17:22:11.515Z,22.68
2022-09-01T17:24:42.400Z,22.70
2022-09-01T17:27:20.612Z,22.68
2022-09-01T17:29:53.793Z,22.68
2022-09-01T17:32:56.284Z,22.64
2022-09-01T17:36:06.614Z,22.58
2022-09-01T17:39:04.338Z,22.47
2022-09-01T17:41:40.398Z,22.37
2022-09-01T17:44:45.582Z,22.28
2022-09-01T17:48:03.640Z,22.16
2022-09-01T17:50:39.460Z,22.09
2022-09-01T17:53:36.480Z,22.03
2022-09-01T17:56:38.367Z,21.96
2022-09-01T17:59:43.199Z,21.89
2022-09-01T18:02:18.865Z,21.88
2022-09-01T18:05:15.808Z,21.86
2022-09-01T18:08:19.331Z,21.86
2022-09-01T18:10:57.248Z,21.88
2022-09-01T18:13:53.526Z,21.93
2022-09-01T18:16:49.882Z,21.96
2022-09-01T18:19:23.043Z,21.96
2022-09-01T18:21:58.576Z,21.93
2022-09-01T18:24:42.471Z,21.93
2022-09-01T18:27:09.379Z,21.94
2022-09-01T18:29:36.338Z,21.91
2022-09-01T18:32:21.373Z,21.86
2022-09-01T18:35:24.479Z,21.84
2022-09-01T18:38:09.881Z,21.79
2022-09-01T18:41:38.232Z,21.72
2022-09-01T18:44:17.671Z,21.71
2022-09-01T18:46:57.985Z,21.64
2022-09-01T18:49:36.928Z,21.54
2022-09-01T18:52:14.474Z,21.47
2022-09-01T18:54:58.319Z,21.45
2022-09-01T18:57:36.234Z,21.39
2022-09-01T19:00:20.323Z,21.32
2022-09-01T19:03:04.815Z,21.21
2022-09-01T19:05:38.389Z,21.15
2022-09-01T19:08:18.072Z,21.08
2022-09-01T19:11:21.977Z,20.98
2022-09-01T19:14:07.336Z,20.94
2022-09-01T19:17:04.555Z,20.84
2022-09-01T19:19:46.468Z,20.80
2022-09-01T19:22:20.475Z,20.73
2022-09-01T19:24:54.018Z,20.70
2022-09-01T19:27:28.654Z,20.62
2022-09-01T19:30:04.208Z,20.61
2022-09-01T19:32:35.144Z,20.61
2022-09-01T19:35:14.078Z,20.54
2022-09-01T19:37:44.109Z,20.51
2022-09-01T19:40:11.756Z,20.52
2022-09-01T19:42:47.106Z,20.45
2022-09-01T19:45:35.927Z,20.42
2022-09-01T19:48:21.910Z,20.40
2022-09-01T19:51:17.876Z,20.32
2022-09-01T19:53:49.283Z,20.27
2022-09-01T19:56:35.707Z,20.28
2022-09-01T19:59:27.555Z,20.22
2022-09-01T20:02:10.378Z,20.21
2022-09-01T20:04:56.950Z,20.14
2022-09-01T20:07:38.402Z,20.16
2022-09-01T20:10:55.350Z,20.14
2022-09-01T20:14:17.668Z,20.14
2022-09-01T20:16:51.387Z,19.99
2022-09-01T20:19:45.093Z,19.99
2022-09-01T20:22:23.292Z,19.97
2022-09-01T20:24:50.264Z,19.94
2022-09-01T20:27:43.858Z,19.91
2022-09-01T20:30:14.690Z,19.84
2022-09-01T20:33:02.947Z,19.81
2022-09-01T20:35:39.822Z,19.78
2022-09-01T20:39:00.599Z,19.72
2022-09-01T20:42:05.606Z,19.67
2022-09-01T20:44:44.731Z,19.67
2022-09-01T20:47:12.648Z,19.60
2022-09-01T20:49:40.519Z,19.57
2022-09-01T20:53:00.000Z,19.51
2022-09-01T20:55:40.693Z,19.50
2022-09-01T20:58:32.838Z,19.46
2022-09-01T21:01:31.841Z,19.42
2022-09-01T21:04:13.361Z,19.41
2022-09-01T21:07:08.469Z,19.33
2022-09-01T21:10:02.210Z,19.32
2022-09-01T21:12:37.610Z,19.29
2022-09-01T21:15:52.760Z,19.17
2022-09-01T21:18:30.406Z,19.19
2022-09-01T21:21:10.205Z,19.15
2022-09-01T21:23:37.172Z,19.13
2022-09-01T21:26:04.252Z,19.06
2022-09-01T21:28:31.541Z,19.03
2022-09-01T21:31:00.214Z,18.95
2022-09-01T21:33:31.923Z,18.91
2022-09-01T21:36:00.398Z,18.91
2022-09-01T21:38:29.572Z,18.88
2022-09-01T21:40:59.700Z,18.84
2022-09-01T21:43:33.034Z,18.80
2022-09-01T21:46:01.285Z,18.76
2022-09-01T21:48:29.064Z,18.76
2022-09-01T21:50:55.914Z,18.71
2022-09-01T21:53:22.782Z,18.67
2022-09-01T21:55:49.907Z,18.69
2022-09-01T21:58:16.820Z,18.66
2022-09-01T22:00:44.661Z,18.65
2022-09-01T22:03:12.957Z,18.66
2022-09-01T22:05:42.503Z,18.66
2022-09-01T22:08:12.405Z,18.63
2022-09-01T22:10:49.863Z,18.61
2022-09-01T22:13:17.552Z,18.55
2022-09-01T22:15:49.358Z,18.49
2022-09-01T22:18:18.628Z,18.40
2022-09-01T22:20:46.692Z,18.37
2022-09-01T22:23:15.186Z,18.35
2022-09-01T22:25:45.922Z,18.27
2022-09-01T22:28:13.951Z,18.23
2022-09-01T22:30:47.018Z,18.18
2022-09-01T22:33:14.631Z,18.18
2022-09-01T22:35:49.009Z,18.18
2022-09-01T22:38:17.390Z,18.12
2022-09-01T22:40:57.402Z,18.11
2022-09-01T22:43:25.667Z,18.14
2022-09-01T22:45:54.383Z,18.14
2022-09-01T22:48:25.712Z,18.10
2022-09-01T22:50:53.243Z,18.07
2022-09-01T22:53:22.976Z,18.09
2022-09-01T22:55:51.653Z,18.03
2022-09-01T22:58:20.127Z,18.04
2022-09-01T23:00:54.151Z,18.03
2022-09-01T23:03:22.587Z,18.04
2022-09-01T23:05:50.491Z,18.03
2022-09-01T23:08:17.574Z,18.00
2022-09-01T23:10:44.483Z,17.98
2022-09-01T23:13:11.322Z,17.97
2022-09-01T23:15:38.235Z,17.96
2022-09-01T23:18:05.756Z,17.91
2022-09-01T23:20:32.643Z,17.93
2022-09-01T23:22:59.476Z,17.91
2022-09-01T23:25:26.527Z,17.90
2022-09-01T23:27:53.444Z,17.91
2022-09-01T23:30:20.471Z,17.88
2022-09-01T23:32:47.263Z,17.89
2022-09-01T23:35:14.198Z,17.86
2022-09-01T23:37:43.481Z,17.81
2022-09-01T23:40:10.630Z,17.81
2022-09-01T23:42:37.627Z,17.74
2022-09-01T23:45:06.126Z,17.75
2022-09-01T23:47:32.979Z,17.72
2022-09-01T23:50:00.014Z,17.73
2022-09-01T23:52:26.893Z,17.67
2022-09-01T23:54:54.855Z,17.67
2022-09-01T23:57:21.789Z,17.67
2022-09-01T23:59:48.715Z,17.61
